Time;durP1;ratioP1;P1;durP2;ratioP2;P2;SDS_P1;SDS_P2;PMS_P1;PMS_P2;Temp;Humidity;BMP_temperature;BMP_pressure;BME280_temperature;BME280_humidity;BME280_pressure;Samples;Min_cycle;Max_cycle;Signal;HPM_P1;HPM_P2
2022/04/17 00:00:31;;;;;;;10.05;6.22;;;;;;;9.56;41.16;102697.66;3563502;40;20141;-62
2022/04/17 00:02:56;;;;;;;9.32;6.60;;;;;;;9.77;41.18;102745.41;3570495;40;20048;-63
2022/04/17 00:05:22;;;;;;;8.80;6.25;;;;;;;9.75;41.19;102741.88;3565777;40;20570;-62
2022/04/17 00:07:48;;;;;;;10.18;6.28;;;;;;;9.58;41.61;102714.59;3567442;40;20060;-63
2022/04/17 00:10:14;;;;;;;7.43;5.75;;;;;;;9.67;41.25;102733.13;3570180;40;20052;-63
2022/04/17 00:12:40;;;;;;;10.15;6.63;;;;;;;9.37;41.35;102690.09;3569142;40;20726;-63
2022/04/17 00:15:10;;;;;;;8.52;5.90;;;;;;;9.62;41.33;102735.97;3572912;40;20577;-63
2022/04/17 00:17:42;;;;;;;6.55;5.63;;;;;;;9.59;41.82;102735.16;3560344;40;20052;-65
2022/04/17 00:20:10;;;;;;;7.00;5.25;;;;;;;9.57;41.42;102739.69;3570370;40;20064;-63
2022/04/17 00:22:36;;;;;;;10.10;6.15;;;;;;;9.57;40.98;102739.69;3561442;40;20407;-63
2022/04/17 00:25:01;;;;;;;9.27;5.95;;;;;;;9.43;40.57;102716.78;3572072;40;20063;-63
2022/04/17 00:27:27;;;;;;;7.93;5.45;;;;;;;9.58;40.26;102738.75;3571412;40;20052;-63
2022/04/17 00:29:53;;;;;;;10.05;5.50;;;;;;;9.61;40.01;102738.66;3573146;40;20165;-64
2022/04/17 00:32:18;;;;;;;9.50;5.40;;;;;;;9.58;40.75;102741.44;3565038;40;20055;-63
2022/04/17 00:34:45;;;;;;;8.60;5.45;;;;;;;9.53;41.07;102745.13;3571705;40;20052;-63
2022/04/17 00:37:11;;;;;;;7.53;5.65;;;;;;;9.46;40.92;102726.56;3566452;40;20139;-61
2022/04/17 00:39:37;;;;;;;8.15;5.35;;;;;;;9.45;40.81;102728.38;3569785;40;20097;-63
2022/04/17 00:42:05;;;;;;;6.30;4.82;;;;;;;9.41;40.43;102732.03;3563774;40;20072;-63
2022/04/17 00:44:33;;;;;;;8.25;5.30;;;;;;;9.32;40.43;102726.91;3568494;40;20053;-63
2022/04/17 00:46:58;;;;;;;8.15;5.50;;;;;;;9.30;40.84;102732.34;3564455;40;20588;-63
2022/04/17 00:49:24;;;;;;;7.28;4.75;;;;;;;9.25;40.90;102733.38;3573200;40;20068;-62
2022/04/17 00:51:51;;;;;;;8.50;4.70;;;;;;;9.19;41.66;102729.03;3565422;40;20064;-63
2022/04/17 00:54:20;;;;;;;7.40;5.68;;;;;;;9.13;41.91;102739.03;3574975;40;20056;-64
2022/04/17 00:56:51;;;;;;;7.82;5.10;;;;;;;9.12;41.33;102734.59;3570907;40;20060;-62
2022/04/17 00:59:17;;;;;;;7.82;5.10;;;;;;;9.07;41.74;102735.59;3563149;40;20057;-63
2022/04/17 01:01:42;;;;;;;7.00;5.28;;;;;;;9.03;41.83;102727.66;3572433;40;20079;-63
2022/04/17 01:04:09;;;;;;;8.63;5.10;;;;;;;8.96;42.12;102734.97;3561185;40;20068;-63
2022/04/17 01:06:38;;;;;;;8.88;5.35;;;;;;;8.79;41.43;102703.22;3557919;40;20109;-62
2022/04/17 01:09:04;;;;;;;6.60;4.85;;;;;;;8.86;41.61;102725.41;3573869;40;20052;-62
2022/04/17 01:11:30;;;;;;;7.85;4.75;;;;;;;8.76;42.13;102721.19;3572688;40;20129;-61
2022/04/17 01:13:57;;;;;;;8.18;5.07;;;;;;;8.73;42.44;102714.09;3574140;40;20095;-62
2022/04/17 01:16:25;;;;;;;7.43;5.03;;;;;;;8.71;42.03;102726.63;3573294;40;20060;-61
2022/04/17 01:19:12;;;;;;;7.30;4.72;;;;;;;8.66;42.30;102717.84;3563037;40;20100;-63
2022/04/17 01:21:47;;;;;;;5.93;4.82;;;;;;;8.64;42.80;102729.50;3570157;40;20253;-63
2022/04/17 01:27:03;;;;;;;8.55;4.60;;;;;;;8.53;42.74;102724.38;3573509;40;20074;-61
2022/04/17 01:29:37;;;;;;;6.80;4.88;;;;;;;8.48;42.76;102724.50;3572686;40;20051;-61
2022/04/17 01:32:07;;;;;;;6.82;4.90;;;;;;;8.45;43.22;102729.91;3573608;40;20076;-62
2022/04/17 01:34:34;;;;;;;6.97;4.82;;;;;;;8.42;42.17;102724.63;3556105;40;20564;-61
2022/04/17 01:37:01;;;;;;;5.65;4.35;;;;;;;8.44;42.10;102728.16;3570318;40;20298;-61
2022/04/17 01:39:28;;;;;;;7.68;4.47;;;;;;;8.46;42.03;102731.66;3565075;40;20060;-61
2022/04/17 01:41:57;;;;;;;5.68;4.60;;;;;;;8.45;42.55;102724.56;3572332;40;20133;-61
2022/04/17 01:44:25;;;;;;;7.03;4.53;;;;;;;8.41;42.79;102727.34;3570680;40;20048;-61
2022/04/17 01:46:51;;;;;;;7.70;4.95;;;;;;;8.39;42.38;102730.06;3572971;40;20141;-61
2022/04/17 01:49:18;;;;;;;6.82;4.60;;;;;;;8.33;43.26;102731.03;3571689;40;20138;-61
2022/04/17 01:51:47;;;;;;;7.13;5.03;;;;;;;8.28;42.61;102734.75;3548635;40;20134;-62
2022/04/17 01:54:16;;;;;;;6.35;4.78;;;;;;;8.21;43.47;102728.59;3565613;40;20056;-61
2022/04/17 01:56:43;;;;;;;8.05;4.53;;;;;;;8.13;43.75;102723.44;3573763;40;20040;-61
2022/04/17 01:59:11;;;;;;;9.18;4.95;;;;;;;8.07;45.28;102723.56;3573308;40;20056;-61
2022/04/17 02:01:38;;;;;;;6.70;4.35;;;;;;;7.93;44.47;102706.91;3571714;40;20890;-61
2022/04/17 02:04:06;;;;;;;5.88;4.40;;;;;;;8.01;44.35;102725.47;3571868;40;21157;-61
2022/04/17 02:06:32;;;;;;;6.22;4.10;;;;;;;7.68;44.66;102667.25;3559350;40;20301;-62
2022/04/17 02:08:58;;;;;;;5.85;4.30;;;;;;;7.96;44.29;102719.31;3564690;40;20056;-63
2022/04/17 02:11:26;;;;;;;7.60;4.75;;;;;;;7.85;43.87;102714.19;3569476;40;20053;-63
2022/04/17 02:13:52;;;;;;;8.15;4.75;;;;;;;7.83;44.77;102719.59;3572124;40;20160;-62
2022/04/17 02:16:18;;;;;;;8.65;4.70;;;;;;;7.77;46.00;102711.69;3569220;40;20725;-62
2022/04/17 02:18:49;;;;;;;7.82;4.82;;;;;;;7.74;46.39;102717.09;3570251;40;20099;-62
2022/04/17 02:21:16;;;;;;;5.85;4.25;;;;;;;7.71;46.45;102718.94;3565068;40;20406;-62
2022/04/17 02:23:44;;;;;;;8.13;4.75;;;;;;;7.64;45.50;102712.81;3561172;40;21577;-62
2022/04/17 02:26:13;;;;;;;6.75;4.72;;;;;;;7.55;46.14;102713.00;3572116;40;20101;-62
2022/04/17 02:28:40;;;;;;;6.07;4.60;;;;;;;7.48;46.66;102711.34;3562155;40;21058;-62
2022/04/17 02:31:08;;;;;;;7.13;4.50;;;;;;;7.41;47.00;102711.47;3571071;40;20068;-62
2022/04/17 02:33:36;;;;;;;9.35;5.00;;;;;;;7.35;47.22;102710.69;3569718;40;20141;-63
2022/04/17 02:36:02;;;;;;;7.47;4.50;;;;;;;7.32;47.52;102713.41;3571074;40;20089;-62
2022/04/17 02:38:27;;;;;;;6.70;4.70;;;;;;;7.29;47.08;102716.16;3560280;40;20060;-63
2022/04/17 02:40:54;;;;;;;8.65;4.60;;;;;;;7.18;47.48;102697.63;3565435;40;20142;-63
2022/04/17 02:43:20;;;;;;;6.18;4.43;;;;;;;7.22;47.93;102713.59;3563679;40;20120;-63
2022/04/17 02:45:47;;;;;;;8.38;4.82;;;;;;;7.17;48.39;102702.09;3568142;40;20067;-63
2022/04/17 02:48:13;;;;;;;5.60;4.32;;;;;;;7.15;48.96;102703.91;3571379;40;20056;-63
2022/04/17 02:50:39;;;;;;;8.50;4.50;;;;;;;7.15;48.10;102708.38;3569147;40;20104;-63
2022/04/17 02:53:06;;;;;;;5.72;4.30;;;;;;;7.09;48.42;102714.72;3563913;40;20052;-63
2022/04/17 02:55:31;;;;;;;6.43;4.32;;;;;;;7.02;48.59;102698.81;3563349;40;20206;-63
2022/04/17 02:57:57;;;;;;;6.95;4.78;;;;;;;7.00;48.72;102703.28;3570651;40;20116;-63
2022/04/17 03:00:26;;;;;;;5.82;4.45;;;;;;;6.96;48.81;102705.13;3570611;40;20069;-63
2022/04/17 03:05:37;;;;;;;6.63;4.45;;;;;;;6.82;49.05;102704.47;3568247;40;20063;-63
2022/04/17 03:08:06;;;;;;;5.53;4.47;;;;;;;6.78;50.00;102702.75;3563585;40;20084;-63
2022/04/17 03:10:32;;;;;;;8.98;4.68;;;;;;;6.73;49.47;102698.38;3564800;40;20064;-63
2022/04/17 03:12:58;;;;;;;7.97;4.55;;;;;;;6.71;49.11;102696.63;3569352;40;20157;-63
2022/04/17 03:15:24;;;;;;;5.72;4.40;;;;;;;6.67;49.73;102694.91;3569467;40;20064;-64
2022/04/17 03:17:49;;;;;;;5.88;4.22;;;;;;;6.61;50.06;102690.53;3568677;40;20738;-65
2022/04/17 03:20:15;;;;;;;7.95;4.68;;;;;;;6.58;50.36;102682.56;3570709;40;20057;-63
2022/04/17 03:22:42;;;;;;;6.03;4.28;;;;;;;6.54;51.64;102680.84;3558137;40;20071;-63
2022/04/17 03:25:10;;;;;;;6.95;4.70;;;;;;;6.17;51.87;102619.97;3563348;40;20390;-63
2022/04/17 03:27:35;;;;;;;6.28;4.57;;;;;;;6.57;51.16;102685.28;3562884;40;20048;-63
2022/04/17 03:30:03;;;;;;;4.63;4.05;;;;;;;6.55;50.98;102677.28;3569636;40;20068;-63
2022/04/17 03:32:29;;;;;;;6.53;4.53;;;;;;;6.51;51.54;102673.75;3570210;40;20098;-63
2022/04/17 03:34:54;;;;;;;8.52;4.50;;;;;;;6.50;51.36;102679.13;3573024;40;20685;-63
2022/04/17 03:37:20;;;;;;;6.03;4.40;;;;;;;6.44;50.89;102677.44;3568564;40;20057;-63
2022/04/17 03:39:46;;;;;;;6.30;4.40;;;;;;;6.42;50.80;102676.56;3557529;40;20559;-64
2022/04/17 03:42:12;;;;;;;5.25;4.18;;;;;;;6.41;49.91;102671.28;3605041;22;20035;-64
2022/04/17 03:44:38;;;;;;;6.18;4.15;;;;;;;6.32;49.36;102655.38;3590275;39;20059;-65
2022/04/17 03:47:06;;;;;;;7.10;4.30;;;;;;;6.42;50.70;102673.03;3595885;39;20119;-65
2022/04/17 03:49:32;;;;;;;6.47;4.00;;;;;;;6.42;50.67;102673.03;3591841;39;20105;-65
2022/04/17 03:52:00;;;;;;;6.20;4.05;;;;;;;6.43;50.91;102659.63;3592645;39;20067;-65
2022/04/17 03:54:26;;;;;;;5.43;4.05;;;;;;;6.45;51.29;102667.63;3580099;39;21782;-66
2022/04/17 03:56:52;;;;;;;5.15;3.95;;;;;;;6.43;50.46;102670.31;3573346;39;20056;-65
2022/04/17 03:59:19;;;;;;;7.60;4.25;;;;;;;6.46;49.38;102664.06;3575524;40;20052;-66
2022/04/17 04:01:48;;;;;;;5.57;3.90;;;;;;;6.38;48.88;102669.53;3578490;39;20148;-65
2022/04/17 04:04:15;;;;;;;6.78;4.38;;;;;;;6.38;49.60;102671.31;3586603;40;20051;-65
2022/04/17 04:06:41;;;;;;;6.95;4.28;;;;;;;6.22;49.46;102654.63;3582560;40;20044;-65
2022/04/17 04:09:07;;;;;;;5.93;4.18;;;;;;;6.24;50.04;102656.34;3587981;40;20297;-65
2022/04/17 04:11:33;;;;;;;7.15;3.97;;;;;;;6.19;50.76;102654.66;3571768;39;20066;-66
2022/04/17 04:13:58;;;;;;;9.00;4.47;;;;;;;6.11;51.18;102649.41;3587987;39;20047;-65
2022/04/17 04:16:24;;;;;;;7.72;4.38;;;;;;;6.07;51.24;102655.72;3587834;40;20271;-66
2022/04/17 04:18:50;;;;;;;5.03;4.05;;;;;;;6.04;51.60;102656.63;3586278;39;20144;-64
2022/04/17 04:21:15;;;;;;;6.32;4.43;;;;;;;6.03;52.05;102656.66;3591732;39;20075;-65
2022/04/17 04:23:41;;;;;;;5.85;4.05;;;;;;;5.79;52.09;102617.78;3586289;39;20071;-65
2022/04/17 04:26:07;;;;;;;7.55;3.95;;;;;;;5.96;52.23;102645.19;3576505;39;20048;-65
2022/04/17 04:28:33;;;;;;;6.22;4.10;;;;;;;5.86;51.89;102623.94;3579059;39;20386;-65
2022/04/17 04:31:00;;;;;;;5.22;4.30;;;;;;;5.88;52.20;102633.69;3586163;40;20058;-65
2022/04/17 04:33:26;;;;;;;5.43;4.22;;;;;;;5.92;52.74;102639.88;3580538;39;20064;-66
2022/04/17 04:35:52;;;;;;;8.30;4.68;;;;;;;5.81;52.71;102624.88;3584816;39;20056;-65
2022/04/17 04:38:18;;;;;;;5.18;4.20;;;;;;;5.88;52.82;102643.50;3587040;40;20056;-65
2022/04/17 04:40:43;;;;;;;6.97;4.40;;;;;;;5.87;53.61;102649.72;3575094;39;20515;-65
2022/04/17 04:43:09;;;;;;;7.95;4.22;;;;;;;5.79;52.63;102629.34;3581014;39;20055;-66
2022/04/17 04:49:29;;;;;;;7.18;4.03;;;;;;;5.79;52.43;102628.47;3582954;39;20109;-65
2022/04/17 04:51:05;;;;;;;5.05;4.15;;;;;;;5.76;52.80;102623.16;3586910;40;20536;-65
2022/04/17 04:53:30;;;;;;;7.22;4.20;;;;;;;5.75;52.16;102622.28;3585284;39;20067;-65
2022/04/17 04:55:56;;;;;;;8.00;4.30;;;;;;;5.85;53.42;102638.19;3577652;39;20692;-65
2022/04/17 04:58:21;;;;;;;6.57;4.22;;;;;;;5.87;52.75;102636.38;3579986;39;20056;-65
2022/04/17 05:00:47;;;;;;;9.07;4.60;;;;;;;5.73;53.09;102613.41;3585395;39;20060;-65
2022/04/17 05:03:12;;;;;;;6.50;4.78;;;;;;;5.80;51.81;102631.13;3587239;39;20051;-65
2022/04/17 05:05:38;;;;;;;7.85;4.88;;;;;;;5.65;53.39;102611.78;3581480;39;20136;-64
2022/04/17 05:08:04;;;;;;;5.68;4.78;;;;;;;5.73;53.83;102618.75;3586507;40;20048;-65
2022/04/17 05:10:29;;;;;;;6.43;4.43;;;;;;;5.84;53.46;102642.66;3579486;40;20121;-66
2022/04/17 05:12:55;;;;;;;7.53;5.00;;;;;;;5.84;53.62;102631.09;3575624;39;20060;-65
2022/04/17 05:15:22;;;;;;;8.32;5.10;;;;;;;5.79;52.99;102633.81;3579875;39;20058;-66
2022/04/17 05:17:48;;;;;;;8.55;4.97;;;;;;;5.78;54.28;102638.25;3584265;39;20056;-64
2022/04/17 05:20:14;;;;;;;11.20;6.95;;;;;;;5.77;53.68;102630.25;3582923;39;20063;-64
2022/04/17 05:22:40;;;;;;;13.15;7.43;;;;;;;5.45;53.93;102562.19;3583021;39;20062;-64
2022/04/17 05:25:06;;;;;;;10.60;6.70;;;;;;;5.84;53.63;102617.75;3587319;40;20064;-65
2022/04/17 05:27:32;;;;;;;8.98;5.90;;;;;;;5.98;52.82;102629.13;3577809;39;20042;-65
2022/04/17 05:29:58;;;;;;;13.85;5.72;;;;;;;6.07;53.06;102623.69;3575447;39;20060;-65
2022/04/17 05:32:24;;;;;;;8.23;6.03;;;;;;;5.51;52.44;102518.56;3588347;39;20051;-65
2022/04/17 05:34:50;;;;;;;8.40;6.20;;;;;;;6.34;52.21;102648.19;3587615;39;20060;-64
2022/04/17 05:37:16;;;;;;;7.03;5.47;;;;;;;6.43;52.65;102642.72;3582651;40;20109;-65
2022/04/17 05:39:41;;;;;;;8.65;5.90;;;;;;;6.56;53.29;102648.75;3588061;40;20249;-64
2022/04/17 05:42:08;;;;;;;7.20;5.53;;;;;;;6.64;52.41;102638.84;3592912;39;20071;-65
2022/04/17 05:44:37;;;;;;;7.55;5.80;;;;;;;6.81;52.45;102641.22;3575008;39;20112;-66
2022/04/17 05:47:03;;;;;;;6.13;4.95;;;;;;;6.85;51.34;102641.16;3588325;39;20055;-65
2022/04/17 05:49:29;;;;;;;7.80;4.85;;;;;;;6.89;52.13;102642.88;3584816;40;20059;-65
2022/04/17 05:51:58;;;;;;;6.18;4.90;;;;;;;6.85;50.61;102635.81;3585343;39;20071;-65
2022/04/17 05:54:26;;;;;;;10.48;5.43;;;;;;;6.97;51.30;102645.38;3586397;39;20051;-65
2022/04/17 05:56:51;;;;;;;5.65;4.75;;;;;;;6.87;51.19;102617.94;3585484;39;20172;-65
2022/04/17 05:59:17;;;;;;;7.03;5.03;;;;;;;7.04;51.11;102636.38;3575707;39;20327;-65
2022/04/17 06:01:42;;;;;;;5.53;4.75;;;;;;;7.11;50.56;102638.03;3577010;39;20077;-64
2022/04/17 06:04:08;;;;;;;6.47;4.95;;;;;;;7.18;50.90;102653.03;3586656;39;20056;-65
2022/04/17 06:06:34;;;;;;;6.25;4.65;;;;;;;7.16;50.67;102632.56;3580645;39;20136;-66
2022/04/17 06:09:00;;;;;;;7.47;4.60;;;;;;;7.17;49.56;102627.22;3586200;40;20055;-65
2022/04/17 06:11:26;;;;;;;7.05;4.78;;;;;;;7.23;49.86;102607.50;3585190;39;20373;-65
2022/04/17 06:13:52;;;;;;;9.10;4.40;;;;;;;7.25;49.16;102596.75;3582968;39;20063;-65
2022/04/17 06:16:17;;;;;;;7.30;4.75;;;;;;;7.56;48.71;102637.16;3574919;39;20063;-65
2022/04/17 06:18:43;;;;;;;8.38;4.50;;;;;;;7.66;48.50;102646.75;3577472;39;20067;-64
2022/04/17 06:21:11;;;;;;;9.77;4.30;;;;;;;7.74;48.28;102638.56;3586768;39;20064;-65
2022/04/17 06:23:37;;;;;;;6.72;4.53;;;;;;;7.87;48.27;102634.75;3584135;39;20068;-66
2022/04/17 06:26:02;;;;;;;5.13;4.57;;;;;;;7.93;47.55;102629.25;3587003;39;20165;-65
2022/04/17 06:28:28;;;;;;;3.83;3.47;;;;;;;8.13;47.44;102643.06;3585757;39;20091;-65
2022/04/17 06:30:54;;;;;;;6.28;4.30;;;;;;;8.27;46.84;102634.69;3576208;39;20137;-64
2022/04/17 06:33:20;;;;;;;4.68;3.78;;;;;;;8.47;46.37;102630.72;3579333;39;20052;-66
2022/04/17 06:35:46;;;;;;;3.80;3.40;;;;;;;8.70;46.34;102632.84;3584770;39;20067;-65
2022/04/17 06:38:12;;;;;;;5.68;3.65;;;;;;;8.95;44.01;102633.97;3584561;39;20305;-65
2022/04/17 06:40:38;;;;;;;6.10;3.50;;;;;;;9.24;43.42;102629.63;3584507;39;20717;-65
2022/04/17 06:43:08;;;;;;;4.93;3.30;;;;;;;9.54;42.27;102618.03;3585222;40;20071;-65
2022/04/17 06:45:40;;;;;;;4.20;3.75;;;;;;;9.93;40.91;102622.28;3588915;40;20047;-66
2022/04/17 06:48:21;;;;;;;5.88;3.65;;;;;;;10.33;40.46;102626.44;3573498;39;20048;-64
2022/04/17 06:50:49;;;;;;;3.95;3.53;;;;;;;10.58;39.75;102608.56;3589357;40;20175;-65
2022/04/17 06:53:16;;;;;;;4.90;3.67;;;;;;;10.97;39.18;102628.78;3592392;39;20416;-65
2022/04/17 06:55:42;;;;;;;4.05;3.50;;;;;;;11.23;39.09;102618.00;3580972;39;20035;-65
2022/04/17 06:58:08;;;;;;;4.25;3.38;;;;;;;11.33;38.14;102614.03;3590264;40;20040;-65
2022/04/17 07:00:36;;;;;;;6.10;3.72;;;;;;;11.70;37.74;102626.13;3584398;40;20100;-65
2022/04/17 07:03:03;;;;;;;4.50;2.97;;;;;;;11.95;36.99;102625.22;3569312;39;20462;-65
2022/04/17 07:05:28;;;;;;;3.88;3.38;;;;;;;12.11;36.73;102615.59;3584811;40;20043;-65
2022/04/17 07:08:04;;;;;;;4.50;3.25;;;;;;;12.34;36.76;102624.59;3586014;39;20696;-65
2022/04/17 07:10:33;;;;;;;5.25;3.67;;;;;;;12.48;36.69;102624.91;3584593;40;20096;-65
2022/04/17 07:12:58;;;;;;;4.47;3.50;;;;;;;12.59;35.36;102609.19;3585312;39;20056;-64
2022/04/17 07:15:24;;;;;;;4.63;3.25;;;;;;;12.74;35.50;102608.50;3585691;40;20382;-66
2022/04/17 07:17:53;;;;;;;5.43;3.63;;;;;;;12.94;35.30;102610.38;3575501;39;20075;-64
2022/04/17 07:20:20;;;;;;;4.90;3.45;;;;;;;13.12;34.70;102603.28;3578470;39;20537;-66
2022/04/17 07:22:47;;;;;;;4.22;3.03;;;;;;;13.32;35.05;102599.75;3584448;39;20064;-65
2022/04/17 07:25:14;;;;;;;3.85;3.08;;;;;;;13.62;35.41;102608.25;3586741;39;20113;-66
2022/04/17 07:27:42;;;;;;;3.55;3.13;;;;;;;13.79;34.20;102601.19;3585103;39;20059;-65
2022/04/17 07:30:14;;;;;;;4.00;3.20;;;;;;;13.54;33.53;102534.81;3585604;39;20352;-65
2022/04/17 07:32:43;;;;;;;3.30;3.00;;;;;;;14.16;33.70;102598.47;3572585;39;20162;-65
2022/04/17 07:35:11;;;;;;;3.55;3.28;;;;;;;14.31;33.27;102598.69;3581007;39;20445;-65
2022/04/17 07:37:38;;;;;;;3.90;3.30;;;;;;;14.31;32.26;102590.59;3583486;39;20055;-66
2022/04/17 07:40:18;;;;;;;5.07;3.30;;;;;;;14.37;32.76;102584.88;3586350;39;20064;-65
2022/04/17 07:42:45;;;;;;;3.88;3.05;;;;;;;14.47;32.64;102563.63;3583892;39;20987;-66
2022/04/17 07:45:14;;;;;;;3.85;2.95;;;;;;;14.74;32.85;102593.84;3588164;39;20059;-65
2022/04/17 07:47:41;;;;;;;3.95;3.10;;;;;;;14.83;33.33;102585.25;3574253;40;20055;-66
2022/04/17 07:50:07;;;;;;;4.50;3.25;;;;;;;14.89;32.52;102584.94;3572353;39;20064;-66
2022/04/17 07:52:36;;;;;;;6.43;3.60;;;;;;;14.99;32.12;102559.13;3581602;39;20821;-67
2022/04/17 07:55:04;;;;;;;4.88;3.20;;;;;;;15.22;33.02;102573.28;3584282;39;20058;-66
2022/04/17 07:57:55;;;;;;;3.90;3.05;;;;;;;15.43;31.38;102582.97;3582315;39;20685;-67
2022/04/17 08:00:21;;;;;;;4.35;3.28;;;;;;;15.42;31.19;102573.09;3585074;40;20046;-69
2022/04/17 08:02:55;;;;;;;5.05;3.30;;;;;;;15.65;30.40;102584.53;3584987;39;20052;-66
2022/04/17 08:05:24;;;;;;;5.13;2.88;;;;;;;15.78;31.51;102582.91;3573253;39;20064;-68
2022/04/17 08:07:51;;;;;;;3.60;3.00;;;;;;;16.02;31.17;102575.25;3585326;40;20060;-65
2022/04/17 08:10:18;;;;;;;7.28;3.28;;;;;;;16.33;30.68;102587.88;3584660;40;20062;-68
2022/04/17 08:12:44;;;;;;;5.43;3.10;;;;;;;16.73;31.13;102577.41;3584027;39;20404;-65
2022/04/17 08:15:10;;;;;;;4.70;3.10;;;;;;;16.78;30.33;102580.78;3572560;40;20564;-67
2022/04/17 08:17:44;;;;;;;3.95;3.25;;;;;;;16.82;30.27;102579.63;3580914;39;20048;-67
2022/04/17 08:20:10;;;;;;;3.45;3.13;;;;;;;16.96;29.33;102577.91;3585376;39;20125;-67
2022/04/17 08:22:36;;;;;;;3.50;3.20;;;;;;;17.19;30.31;102571.94;3572956;39;20085;-65
2022/04/17 08:25:03;;;;;;;3.75;3.00;;;;;;;17.41;28.87;102582.31;3577264;40;20063;-67
2022/04/17 08:27:28;;;;;;;3.75;3.08;;;;;;;17.40;29.59;102576.00;3572989;40;20109;-67
2022/04/17 08:29:54;;;;;;;3.72;3.13;;;;;;;17.32;28.69;102553.91;3585269;39;20048;-67
2022/04/17 08:32:19;;;;;;;3.15;2.85;;;;;;;17.72;28.80;102570.38;3584285;39;20044;-67
2022/04/17 08:34:45;;;;;;;5.30;3.20;;;;;;;17.76;29.36;102562.88;3583221;40;20187;-68
2022/04/17 08:37:10;;;;;;;3.28;2.97;;;;;;;18.02;29.57;102577.56;3575414;39;20060;-68
2022/04/17 08:39:36;;;;;;;5.47;3.30;;;;;;;18.06;27.77;102571.81;3583060;40;20103;-68
2022/04/17 08:42:05;;;;;;;4.32;3.60;;;;;;;18.08;28.27;102569.00;3585947;39;20134;-65
2022/04/17 08:44:31;;;;;;;4.38;3.53;;;;;;;18.17;27.53;102535.72;3578758;39;20668;-66
2022/04/17 08:46:57;;;;;;;3.70;3.08;;;;;;;18.49;28.49;102573.53;3586115;40;20059;-67
2022/04/17 08:49:24;;;;;;;3.92;3.17;;;;;;;18.64;26.27;102550.69;3584940;39;20052;-67
2022/04/17 08:51:53;;;;;;;3.00;2.50;;;;;;;18.71;26.54;102562.94;3585612;39;20059;-67
2022/04/17 08:54:22;;;;;;;4.57;3.10;;;;;;;18.35;26.33;102505.53;3576506;39;20070;-67
2022/04/17 08:56:48;;;;;;;3.45;2.88;;;;;;;18.74;26.66;102557.31;3584130;39;20063;-66
2022/04/17 08:59:15;;;;;;;5.05;2.90;;;;;;;18.87;25.82;102564.59;3587096;39;20047;-70
2022/04/17 09:01:40;;;;;;;3.45;2.85;;;;;;;18.63;26.47;102540.78;3581535;39;20064;-65
2022/04/17 09:04:07;;;;;;;3.90;2.80;;;;;;;18.78;25.81;102550.66;3587139;39;20056;-66
2022/04/17 09:06:35;;;;;;;3.15;2.80;;;;;;;19.00;26.03;102557.34;3584578;40;20068;-67
2022/04/17 09:09:06;;;;;;;2.80;2.60;;;;;;;18.94;25.26;102552.31;3567652;40;20045;-67
2022/04/17 09:11:34;;;;;;;2.90;2.55;;;;;;;18.79;25.04;102552.41;3574380;39;20048;-68
2022/04/17 09:14:04;;;;;;;3.45;2.75;;;;;;;18.90;25.69;102537.16;3588820;40;20051;-66
2022/04/17 09:16:36;;;;;;;3.53;2.70;;;;;;;19.10;26.75;102536.63;3584268;40;20055;-67
2022/04/17 09:19:25;;;;;;;3.67;2.40;;;;;;;19.14;25.14;102540.00;3585841;40;20477;-66
2022/04/17 09:21:58;;;;;;;2.58;2.38;;;;;;;19.23;25.25;102553.00;3585613;39;20091;-66
2022/04/17 09:24:27;;;;;;;3.03;2.45;;;;;;;19.40;25.67;102538.16;3567637;39;20048;-68
2022/04/17 09:26:58;;;;;;;4.63;2.55;;;;;;;19.45;24.38;102538.69;3581826;39;20088;-66
2022/04/17 09:29:29;;;;;;;3.17;2.40;;;;;;;19.41;23.72;102542.59;3584105;40;20492;-67
2022/04/17 09:32:01;;;;;;;7.78;2.65;;;;;;;19.38;25.14;102540.13;3587091;39;20125;-67
2022/04/17 09:34:44;;;;;;;3.60;2.50;;;;;;;19.47;24.53;102536.72;3580857;39;20148;-66
2022/04/17 09:37:17;;;;;;;;;;;;;;;19.63;24.65;102523.72;3588414;40;20059;-66
2022/04/17 09:39:45;;;;;;;3.00;2.60;;;;;;;19.70;25.02;102525.03;3565746;39;19947;-68
2022/04/17 09:42:12;;;;;;;6.57;3.17;;;;;;;19.72;24.68;102524.91;3619764;22;20044;-61
2022/04/17 09:44:47;;;;;;;4.32;2.88;;;;;;;19.87;25.16;102525.66;3593851;39;20122;-63
2022/04/17 09:47:27;;;;;;;3.78;2.63;;;;;;;20.23;25.10;102512.94;3593809;39;20055;-64
2022/04/17 09:49:57;;;;;;;5.03;3.70;;;;;;;20.37;24.29;102500.00;3592362;39;20055;-62
2022/04/17 09:52:45;;;;;;;4.57;2.90;;;;;;;20.23;24.86;102504.75;3594841;39;20055;-61
2022/04/17 09:55:13;;;;;;;3.88;2.90;;;;;;;20.23;24.68;102496.56;3562681;40;20063;-63
2022/04/17 09:57:45;;;;;;;3.58;2.80;;;;;;;20.34;26.40;102500.22;3571945;40;20121;-62
2022/04/17 10:00:21;;;;;;;4.88;3.35;;;;;;;20.52;26.13;102497.97;3585118;40;20083;-62
2022/04/17 10:02:48;;;;;;;2.83;2.45;;;;;;;20.71;23.50;102488.31;3581014;40;20078;-62
2022/04/17 10:05:19;;;;;;;2.83;2.53;;;;;;;20.63;23.78;102484.34;3586268;40;20116;-63
2022/04/17 10:07:49;;;;;;;4.00;2.33;;;;;;;20.67;23.28;102475.91;3577680;40;20526;-62
2022/04/17 10:10:17;;;;;;;2.75;2.50;;;;;;;20.97;24.35;102478.09;3578909;40;20156;-63
2022/04/17 10:12:46;;;;;;;8.93;6.40;;;;;;;21.00;22.73;102464.16;3567286;40;20068;-62
2022/04/17 10:15:13;;;;;;;100.72;69.75;;;;;;;21.03;24.23;102464.78;3573903;40;20052;-63
2022/04/17 10:17:45;;;;;;;42.58;27.52;;;;;;;20.76;24.90;102425.97;3581765;40;20052;-62
2022/04/17 10:20:14;;;;;;;8.15;4.88;;;;;;;20.89;25.70;102456.81;3586261;40;20096;-62
2022/04/17 10:22:43;;;;;;;5.30;2.83;;;;;;;21.02;24.65;102454.81;3575360;40;20417;-62
2022/04/17 10:25:10;;;;;;;4.05;3.38;;;;;;;21.00;26.06;102417.69;3573247;40;20060;-62
2022/04/17 10:27:36;;;;;;;2.78;2.50;;;;;;;21.46;23.22;102452.25;3571754;40;20164;-63
2022/04/17 10:30:08;;;;;;;2.67;2.47;;;;;;;21.70;23.43;102433.78;3577835;40;20705;-63
2022/04/17 10:32:36;;;;;;;2.30;2.05;;;;;;;21.56;21.86;102440.41;3581513;40;20044;-63
2022/04/17 10:35:49;;;;;;;3.53;2.03;;;;;;;20.35;22.57;102231.56;3582183;40;20063;-63
2022/04/17 10:38:24;;;;;;;4.82;3.95;;;;;;;20.91;24.14;102309.06;3572971;40;20056;-62
2022/04/17 10:41:02;;;;;;;2.65;2.45;;;;;;;21.64;22.93;102422.50;3584369;40;20055;-63
2022/04/17 10:43:59;;;;;;;3.70;2.13;;;;;;;21.73;22.79;102419.00;3572823;40;20059;-62
2022/04/17 10:46:25;;;;;;;2.38;1.98;;;;;;;21.58;23.07;102358.19;3581800;40;20047;-61
2022/04/17 10:48:57;;;;;;;4.20;2.15;;;;;;;21.83;22.27;102413.59;3582578;40;20754;-64
2022/04/17 10:51:30;;;;;;;6.05;2.20;;;;;;;22.02;23.52;102394.59;3580369;40;20118;-62
2022/04/17 10:54:10;;;;;;;3.00;2.20;;;;;;;22.18;21.95;102405.16;3573280;40;20691;-63
2022/04/17 10:56:54;;;;;;;2.97;2.22;;;;;;;22.16;21.94;102396.19;3580323;40;20522;-63
2022/04/17 10:59:27;;;;;;;2.63;2.10;;;;;;;22.41;22.26;102395.78;3573928;40;20382;-62
2022/04/17 11:02:22;;;;;;;2.65;2.00;;;;;;;22.37;22.12;102383.38;3577279;40;20249;-62
2022/04/17 11:04:55;;;;;;;4.30;2.00;;;;;;;22.58;22.28;102368.75;3581050;40;20052;-62
2022/04/17 11:07:22;;;;;;;2.40;2.20;;;;;;;22.79;22.54;102388.78;3581646;40;20117;-62
2022/04/17 11:10:18;;;;;;;3.10;2.33;;;;;;;22.74;21.38;102377.38;3585266;40;20278;-62
2022/04/17 11:12:54;;;;;;;2.40;2.20;;;;;;;22.93;21.96;102391.22;3582711;40;20083;-62
2022/04/17 11:15:21;;;;;;;3.22;2.03;;;;;;;22.75;20.24;102383.75;3573550;40;20056;-62
2022/04/17 11:17:47;;;;;;;2.00;1.80;;;;;;;22.88;20.17;102379.75;3578407;40;20064;-62
2022/04/17 11:20:14;;;;;;;3.90;1.90;;;;;;;22.79;20.66;102350.41;3584324;40;20048;-61
2022/04/17 11:22:40;;;;;;;4.43;1.80;;;;;;;23.10;20.67;102375.97;3580707;40;20059;-62
2022/04/17 11:25:12;;;;;;;2.63;1.60;;;;;;;23.52;19.74;102363.94;3582026;40;20055;-62
2022/04/17 11:27:51;;;;;;;3.00;2.60;;;;;;;23.45;18.96;102346.31;3570800;40;20077;-61
2022/04/17 11:30:17;;;;;;;2.35;1.90;;;;;;;23.61;18.51;102363.97;3574283;39;20070;-61
2022/04/17 11:32:42;;;;;;;3.90;2.05;;;;;;;23.37;18.25;102350.66;3576802;40;20071;-62
2022/04/17 11:35:17;;;;;;;2.50;1.90;;;;;;;23.26;17.89;102350.75;3579444;40;20294;-62
2022/04/17 11:38:01;;;;;;;56.08;43.15;;;;;;;23.45;19.50;102330.72;3580888;40;20064;-60
2022/04/17 11:40:31;;;;;;;60.25;41.83;;;;;;;23.84;17.79;102337.13;3584751;40;20043;-61
2022/04/17 11:43:06;;;;;;;27.60;20.50;;;;;;;23.39;17.75;102329.41;3575468;40;20061;-61